OSE125 LIRN-LIRP
Flight info
| Callsign | OSE125 |
|---|---|
| Flight time | 0h 52m |
| Altitude | 38000 |
| Route | VEXUV DCT PNZ DCT GILIO/N0387F180 M729 ELB |
| Aircraft | B738/M-SDE2E3FGHIRWXY/LB1 |
Departure
| Time | 2026-04-21 07:57 |
|---|---|
| Airport | Naples International Airport (LIRN) |
Arrival
| Time | 2026-04-21 08:49 |
|---|---|
| Airport | Pisa International Airport (LIRP) |
| Time | Latitude | Longitude | Altitude | Speed | Heading |
|---|---|---|---|---|---|
| 2026-04-21 07:45 | 40.88211 | 14.28822 | 281 ft | 0 kts | 31° |
| 2026-04-21 07:45 | 40.88212 | 14.28823 | 281 ft | 0 kts | 31° |
| 2026-04-21 07:46 | 40.88208 | 14.28819 | 280 ft | 1 kts | 31° |
| 2026-04-21 07:46 | 40.88203 | 14.28814 | 281 ft | 1 kts | 71° |
| 2026-04-21 07:47 | 40.88202 | 14.28809 | 280 ft | 0 kts | 81° |
| 2026-04-21 07:48 | 40.88202 | 14.28808 | 280 ft | 0 kts | 81° |
| 2026-04-21 07:48 | 40.88202 | 14.28805 | 280 ft | 3 kts | 80° |
| 2026-04-21 07:48 | 40.88199 | 14.28795 | 284 ft | 1 kts | 10° |
| 2026-04-21 07:48 | 40.88193 | 14.28793 | 285 ft | 0 kts | 60° |
| 2026-04-21 07:49 | 40.88189 | 14.28782 | 285 ft | 3 kts | 60° |
| 2026-04-21 07:49 | 40.88181 | 14.28765 | 278 ft | 3 kts | 60° |
| 2026-04-21 07:50 | 40.88173 | 14.28752 | 280 ft | 0 kts | 29° |
| 2026-04-21 07:50 | 40.88168 | 14.28749 | 282 ft | 0 kts | 63° |
| 2026-04-21 07:52 | 40.88191 | 14.28842 | 282 ft | 13 kts | 76° |
| 2026-04-21 07:52 | 40.88240 | 14.28947 | 274 ft | 13 kts | 52° |
| 2026-04-21 07:52 | 40.88296 | 14.29041 | 272 ft | 13 kts | 52° |
| 2026-04-21 07:53 | 40.88350 | 14.29134 | 269 ft | 13 kts | 52° |
| 2026-04-21 07:53 | 40.88402 | 14.29223 | 267 ft | 12 kts | 52° |
| 2026-04-21 07:53 | 40.88457 | 14.29317 | 265 ft | 13 kts | 52° |
| 2026-04-21 07:53 | 40.88516 | 14.29417 | 262 ft | 15 kts | 52° |
| 2026-04-21 07:54 | 40.88580 | 14.29527 | 259 ft | 16 kts | 52° |
| 2026-04-21 07:54 | 40.88650 | 14.29646 | 255 ft | 17 kts | 52° |
| 2026-04-21 07:54 | 40.88725 | 14.29774 | 251 ft | 18 kts | 52° |
| 2026-04-21 07:54 | 40.88804 | 14.29911 | 247 ft | 19 kts | 53° |
| 2026-04-21 07:55 | 40.88879 | 14.30047 | 242 ft | 18 kts | 53° |
| 2026-04-21 07:55 | 40.88956 | 14.30185 | 237 ft | 20 kts | 53° |
| 2026-04-21 07:55 | 40.89044 | 14.30333 | 232 ft | 21 kts | 52° |
| 2026-04-21 07:55 | 40.89071 | 14.30377 | 230 ft | 0 kts | 52° |
| 2026-04-21 07:56 | 40.89105 | 14.30433 | 227 ft | 11 kts | 44° |
| 2026-04-21 07:56 | 40.89179 | 14.30442 | 225 ft | 11 kts | 348° |
| 2026-04-21 07:56 | 40.89224 | 14.30372 | 226 ft | 4 kts | 269° |
| 2026-04-21 07:56 | 40.89196 | 14.30323 | 228 ft | 25 kts | 230° |
| 2026-04-21 07:57 | 40.88929 | 14.29758 | 248 ft | 117 kts | 238° |
| 2026-04-21 07:57 | 40.88371 | 14.28573 | 416 ft | 177 kts | 238° |
| 2026-04-21 07:57 | 40.87757 | 14.27255 | 1712 ft | 152 kts | 236° |
| 2026-04-21 07:57 | 40.86967 | 14.26443 | 2589 ft | 160 kts | 195° |
| 2026-04-21 07:58 | 40.85644 | 14.26525 | 2384 ft | 217 kts | 171° |
| 2026-04-21 07:58 | 40.84114 | 14.26898 | 2288 ft | 229 kts | 172° |
| 2026-04-21 07:58 | 40.82528 | 14.27175 | 2140 ft | 231 kts | 175° |
| 2026-04-21 07:58 | 40.80935 | 14.27397 | 2141 ft | 227 kts | 175° |
| 2026-04-21 07:59 | 40.79374 | 14.27596 | 2666 ft | 226 kts | 177° |
| 2026-04-21 07:59 | 40.77789 | 14.27199 | 3014 ft | 246 kts | 213° |
| 2026-04-21 07:59 | 40.76688 | 14.25492 | 3657 ft | 250 kts | 248° |
| 2026-04-21 07:59 | 40.76287 | 14.23255 | 4451 ft | 252 kts | 262° |
| 2026-04-21 08:00 | 40.76131 | 14.20938 | 5233 ft | 255 kts | 266° |
| 2026-04-21 08:00 | 40.76026 | 14.18630 | 6005 ft | 256 kts | 266° |
| 2026-04-21 08:00 | 40.75919 | 14.16272 | 6770 ft | 260 kts | 266° |
| 2026-04-21 08:00 | 40.75804 | 14.13884 | 7665 ft | 262 kts | 267° |
| 2026-04-21 08:01 | 40.75680 | 14.11482 | 8597 ft | 264 kts | 267° |
| 2026-04-21 08:01 | 40.75549 | 14.09052 | 9489 ft | 268 kts | 267° |
| 2026-04-21 08:01 | 40.75412 | 14.06589 | 10316 ft | 273 kts | 267° |
| 2026-04-21 08:02 | 40.75103 | 14.01160 | 10819 ft | 323 kts | 267° |
| 2026-04-21 08:02 | 40.74925 | 13.98097 | 11003 ft | 346 kts | 266° |
| 2026-04-21 08:02 | 40.74736 | 13.94911 | 11449 ft | 358 kts | 266° |
| 2026-04-21 08:02 | 40.74536 | 13.91616 | 12161 ft | 363 kts | 266° |
| 2026-04-21 08:03 | 40.74331 | 13.88289 | 12947 ft | 365 kts | 267° |
| 2026-04-21 08:03 | 40.74124 | 13.84934 | 13718 ft | 369 kts | 267° |
| 2026-04-21 08:03 | 40.73913 | 13.81549 | 14379 ft | 372 kts | 267° |
| 2026-04-21 08:03 | 40.73701 | 13.78135 | 15038 ft | 375 kts | 267° |
| 2026-04-21 08:04 | 40.73487 | 13.74695 | 15701 ft | 378 kts | 267° |
| 2026-04-21 08:04 | 40.73269 | 13.71223 | 16353 ft | 381 kts | 267° |
| 2026-04-21 08:04 | 40.73053 | 13.67771 | 16964 ft | 385 kts | 267° |
| 2026-04-21 08:04 | 40.72830 | 13.64238 | 17571 ft | 389 kts | 267° |
| 2026-04-21 08:05 | 40.72604 | 13.60675 | 18180 ft | 392 kts | 267° |
| 2026-04-21 08:05 | 40.72375 | 13.57078 | 18729 ft | 395 kts | 267° |
| 2026-04-21 08:05 | 40.72143 | 13.53459 | 19292 ft | 397 kts | 267° |
| 2026-04-21 08:05 | 40.71909 | 13.49825 | 19853 ft | 399 kts | 267° |
| 2026-04-21 08:06 | 40.71673 | 13.46179 | 20395 ft | 401 kts | 267° |
| 2026-04-21 08:06 | 40.71435 | 13.42502 | 20910 ft | 404 kts | 267° |
| 2026-04-21 08:06 | 40.71194 | 13.38808 | 21419 ft | 406 kts | 267° |
| 2026-04-21 08:06 | 40.70968 | 13.35145 | 21911 ft | 408 kts | 269° |
| 2026-04-21 08:07 | 40.71055 | 13.31412 | 22376 ft | 408 kts | 282° |
| 2026-04-21 08:07 | 40.72105 | 13.27962 | 22822 ft | 410 kts | 303° |
| 2026-04-21 08:07 | 40.73967 | 13.25101 | 23346 ft | 413 kts | 314° |
| 2026-04-21 08:07 | 40.76081 | 13.22521 | 23761 ft | 416 kts | 316° |
| 2026-04-21 08:08 | 40.78227 | 13.19940 | 24103 ft | 419 kts | 315° |
| 2026-04-21 08:08 | 40.80294 | 13.17223 | 24473 ft | 420 kts | 312° |
| 2026-04-21 08:08 | 40.82292 | 13.14400 | 24851 ft | 422 kts | 311° |
| 2026-04-21 08:08 | 40.84274 | 13.11541 | 25225 ft | 423 kts | 311° |
| 2026-04-21 08:09 | 40.86243 | 13.08712 | 25577 ft | 425 kts | 311° |
| 2026-04-21 08:09 | 40.88264 | 13.05842 | 25906 ft | 427 kts | 311° |
| 2026-04-21 08:09 | 40.90305 | 13.02977 | 26247 ft | 429 kts | 311° |
| 2026-04-21 08:09 | 40.92366 | 13.00108 | 26569 ft | 431 kts | 312° |
| 2026-04-21 08:10 | 40.94442 | 12.97233 | 26871 ft | 433 kts | 312° |
| 2026-04-21 08:10 | 40.96528 | 12.94349 | 27180 ft | 435 kts | 312° |
| 2026-04-21 08:10 | 40.98621 | 12.91458 | 27583 ft | 434 kts | 312° |
| 2026-04-21 08:10 | 41.00677 | 12.88615 | 28065 ft | 432 kts | 312° |
| 2026-04-21 08:11 | 41.02749 | 12.85748 | 28564 ft | 430 kts | 312° |
| 2026-04-21 08:11 | 41.04809 | 12.82893 | 29016 ft | 429 kts | 312° |
| 2026-04-21 08:11 | 41.06868 | 12.80035 | 29440 ft | 428 kts | 312° |
| 2026-04-21 08:11 | 41.08919 | 12.77185 | 29906 ft | 426 kts | 311° |
| 2026-04-21 08:12 | 41.10961 | 12.74344 | 30311 ft | 425 kts | 312° |
| 2026-04-21 08:12 | 41.12994 | 12.71513 | 30699 ft | 423 kts | 312° |
| 2026-04-21 08:12 | 41.15019 | 12.68691 | 31093 ft | 421 kts | 311° |
| 2026-04-21 08:12 | 41.17036 | 12.65877 | 31475 ft | 420 kts | 311° |
| 2026-04-21 08:13 | 41.19016 | 12.63112 | 31875 ft | 418 kts | 311° |
| 2026-04-21 08:13 | 41.21013 | 12.60321 | 32257 ft | 416 kts | 311° |
| 2026-04-21 08:13 | 41.23001 | 12.57540 | 32638 ft | 414 kts | 311° |
| 2026-04-21 08:13 | 41.24981 | 12.54767 | 33034 ft | 412 kts | 311° |
| 2026-04-21 08:14 | 41.26949 | 12.52009 | 33432 ft | 410 kts | 311° |
| 2026-04-21 08:14 | 41.28907 | 12.49262 | 33806 ft | 409 kts | 311° |
| 2026-04-21 08:14 | 41.30858 | 12.46523 | 34131 ft | 407 kts | 311° |
| 2026-04-21 08:14 | 41.32805 | 12.43785 | 34393 ft | 407 kts | 311° |
| 2026-04-21 08:15 | 41.34752 | 12.41047 | 34624 ft | 408 kts | 311° |
| 2026-04-21 08:15 | 41.36699 | 12.38304 | 34873 ft | 407 kts | 311° |
| 2026-04-21 08:15 | 41.38620 | 12.35597 | 35117 ft | 407 kts | 311° |
| 2026-04-21 08:15 | 41.40566 | 12.32851 | 35305 ft | 409 kts | 311° |
| 2026-04-21 08:16 | 41.42519 | 12.30092 | 35499 ft | 409 kts | 311° |
| 2026-04-21 08:16 | 41.44470 | 12.27335 | 35744 ft | 409 kts | 311° |
| 2026-04-21 08:16 | 41.46420 | 12.24576 | 35974 ft | 409 kts | 311° |
| 2026-04-21 08:17 | 41.50344 | 12.19016 | 35958 ft | 411 kts | 311° |
| 2026-04-21 08:17 | 41.54220 | 12.13516 | 35960 ft | 408 kts | 310° |
| 2026-04-21 08:18 | 41.58088 | 12.08017 | 35952 ft | 405 kts | 310° |
| 2026-04-21 08:18 | 41.61933 | 12.02537 | 35950 ft | 403 kts | 310° |
| 2026-04-21 08:19 | 41.65768 | 11.97063 | 35952 ft | 403 kts | 310° |
| 2026-04-21 08:19 | 41.69575 | 11.91617 | 35956 ft | 404 kts | 310° |
| 2026-04-21 08:20 | 41.73423 | 11.86104 | 35956 ft | 406 kts | 310° |
| 2026-04-21 08:20 | 41.77282 | 11.80563 | 35981 ft | 408 kts | 310° |
| 2026-04-21 08:21 | 41.81160 | 11.74986 | 35975 ft | 410 kts | 310° |
| 2026-04-21 08:21 | 41.85024 | 11.69418 | 35962 ft | 411 kts | 310° |
| 2026-04-21 08:22 | 41.88922 | 11.63791 | 35958 ft | 412 kts | 310° |
| 2026-04-21 08:22 | 41.92820 | 11.58153 | 35954 ft | 412 kts | 310° |
| 2026-04-21 08:23 | 41.96714 | 11.52509 | 35950 ft | 411 kts | 310° |
| 2026-04-21 08:23 | 42.00574 | 11.46906 | 35948 ft | 411 kts | 310° |
| 2026-04-21 08:24 | 42.04453 | 11.41262 | 35620 ft | 413 kts | 310° |
| 2026-04-21 08:24 | 42.06393 | 11.38434 | 35169 ft | 408 kts | 310° |
| 2026-04-21 08:24 | 42.08306 | 11.35646 | 34731 ft | 403 kts | 310° |
| 2026-04-21 08:24 | 42.10193 | 11.32893 | 34300 ft | 397 kts | 310° |
| 2026-04-21 08:25 | 42.12053 | 11.30177 | 33866 ft | 392 kts | 310° |
| 2026-04-21 08:25 | 42.13893 | 11.27487 | 33361 ft | 388 kts | 310° |
| 2026-04-21 08:25 | 42.15686 | 11.24861 | 32886 ft | 384 kts | 310° |
| 2026-04-21 08:25 | 42.17482 | 11.22229 | 32407 ft | 380 kts | 310° |
| 2026-04-21 08:26 | 42.19262 | 11.19618 | 31935 ft | 376 kts | 310° |
| 2026-04-21 08:26 | 42.21021 | 11.17035 | 31472 ft | 373 kts | 311° |
| 2026-04-21 08:26 | 42.22769 | 11.14467 | 31016 ft | 370 kts | 311° |
| 2026-04-21 08:26 | 42.24499 | 11.11921 | 30572 ft | 367 kts | 311° |
| 2026-04-21 08:27 | 42.26218 | 11.09392 | 30134 ft | 364 kts | 311° |
| 2026-04-21 08:27 | 42.27899 | 11.06915 | 29650 ft | 362 kts | 311° |
| 2026-04-21 08:27 | 42.29591 | 11.04421 | 29145 ft | 359 kts | 311° |
| 2026-04-21 08:27 | 42.31269 | 11.01947 | 28647 ft | 356 kts | 311° |
| 2026-04-21 08:28 | 42.32931 | 10.99492 | 28160 ft | 353 kts | 311° |
| 2026-04-21 08:28 | 42.34582 | 10.97053 | 27679 ft | 350 kts | 311° |
| 2026-04-21 08:28 | 42.36217 | 10.94635 | 27208 ft | 347 kts | 311° |
| 2026-04-21 08:28 | 42.37841 | 10.92231 | 26745 ft | 345 kts | 311° |
| 2026-04-21 08:29 | 42.39454 | 10.89841 | 26287 ft | 343 kts | 311° |
| 2026-04-21 08:29 | 42.41054 | 10.87468 | 25843 ft | 340 kts | 310° |
| 2026-04-21 08:29 | 42.42624 | 10.85137 | 25392 ft | 338 kts | 310° |
| 2026-04-21 08:29 | 42.44204 | 10.82790 | 24963 ft | 336 kts | 310° |
| 2026-04-21 08:30 | 42.45774 | 10.80457 | 24535 ft | 334 kts | 310° |
| 2026-04-21 08:30 | 42.47335 | 10.78134 | 24112 ft | 332 kts | 310° |
| 2026-04-21 08:30 | 42.48886 | 10.75826 | 23693 ft | 331 kts | 310° |
| 2026-04-21 08:30 | 42.50430 | 10.73525 | 23234 ft | 329 kts | 310° |
| 2026-04-21 08:31 | 42.51963 | 10.71237 | 22746 ft | 327 kts | 310° |
| 2026-04-21 08:31 | 42.53490 | 10.68958 | 22262 ft | 326 kts | 310° |
| 2026-04-21 08:31 | 42.54990 | 10.66718 | 21800 ft | 324 kts | 310° |
| 2026-04-21 08:31 | 42.56504 | 10.64455 | 21336 ft | 323 kts | 310° |
| 2026-04-21 08:32 | 42.58009 | 10.62203 | 20880 ft | 322 kts | 310° |
| 2026-04-21 08:32 | 42.59509 | 10.59957 | 20432 ft | 321 kts | 310° |
| 2026-04-21 08:32 | 42.61003 | 10.57718 | 19992 ft | 319 kts | 310° |
| 2026-04-21 08:32 | 42.62491 | 10.55488 | 19555 ft | 318 kts | 310° |
| 2026-04-21 08:33 | 42.63981 | 10.53252 | 19045 ft | 322 kts | 310° |
| 2026-04-21 08:33 | 42.65509 | 10.50954 | 18465 ft | 334 kts | 310° |
| 2026-04-21 08:33 | 42.67081 | 10.48592 | 17831 ft | 339 kts | 310° |
| 2026-04-21 08:33 | 42.68669 | 10.46204 | 17170 ft | 342 kts | 310° |
| 2026-04-21 08:34 | 42.70251 | 10.43825 | 16540 ft | 344 kts | 310° |
| 2026-04-21 08:34 | 42.71894 | 10.41458 | 15911 ft | 346 kts | 315° |
| 2026-04-21 08:34 | 42.73883 | 10.39606 | 15264 ft | 353 kts | 336° |
| 2026-04-21 08:34 | 42.76312 | 10.38976 | 14686 ft | 359 kts | 352° |
| 2026-04-21 08:35 | 42.78806 | 10.38783 | 14082 ft | 359 kts | 353° |
| 2026-04-21 08:35 | 42.81299 | 10.38602 | 13480 ft | 359 kts | 352° |
| 2026-04-21 08:35 | 42.83781 | 10.38281 | 12807 ft | 358 kts | 350° |
| 2026-04-21 08:35 | 42.86254 | 10.37898 | 12170 ft | 357 kts | 350° |
| 2026-04-21 08:36 | 42.88691 | 10.37516 | 11550 ft | 357 kts | 350° |
| 2026-04-21 08:36 | 42.91154 | 10.37142 | 10933 ft | 356 kts | 351° |
| 2026-04-21 08:36 | 42.93612 | 10.36784 | 10319 ft | 355 kts | 351° |
| 2026-04-21 08:36 | 42.96064 | 10.36438 | 9720 ft | 354 kts | 351° |
| 2026-04-21 08:37 | 42.98510 | 10.36098 | 9070 ft | 353 kts | 351° |
| 2026-04-21 08:37 | 43.00946 | 10.35764 | 8430 ft | 351 kts | 351° |
| 2026-04-21 08:37 | 43.03373 | 10.35431 | 7798 ft | 350 kts | 351° |
| 2026-04-21 08:37 | 43.05790 | 10.35099 | 7188 ft | 349 kts | 351° |
| 2026-04-21 08:38 | 43.08170 | 10.34772 | 6591 ft | 345 kts | 351° |
| 2026-04-21 08:38 | 43.10511 | 10.34446 | 5956 ft | 332 kts | 350° |
| 2026-04-21 08:38 | 43.12659 | 10.33550 | 5310 ft | 318 kts | 332° |
| 2026-04-21 08:38 | 43.14579 | 10.32147 | 4695 ft | 309 kts | 330° |
| 2026-04-21 08:39 | 43.16447 | 10.30779 | 4219 ft | 298 kts | 332° |
| 2026-04-21 08:39 | 43.18285 | 10.29703 | 4051 ft | 279 kts | 345° |
| 2026-04-21 08:39 | 43.20121 | 10.29233 | 4003 ft | 258 kts | 349° |
| 2026-04-21 08:39 | 43.21820 | 10.28809 | 3933 ft | 240 kts | 347° |
| 2026-04-21 08:40 | 43.22894 | 10.28571 | 3812 ft | 233 kts | 353° |
| 2026-04-21 08:40 | 43.24964 | 10.28406 | 3600 ft | 218 kts | 356° |
| 2026-04-21 08:40 | 43.26453 | 10.28333 | 3438 ft | 211 kts | 356° |
| 2026-04-21 08:40 | 43.27912 | 10.28268 | 3287 ft | 210 kts | 356° |
| 2026-04-21 08:41 | 43.29371 | 10.28203 | 3133 ft | 210 kts | 356° |
| 2026-04-21 08:41 | 43.30835 | 10.28140 | 2994 ft | 211 kts | 356° |
| 2026-04-21 08:41 | 43.31810 | 10.28096 | 2898 ft | 212 kts | 356° |
| 2026-04-21 08:41 | 43.33290 | 10.28025 | 2755 ft | 214 kts | 356° |
| 2026-04-21 08:42 | 43.34783 | 10.27946 | 2607 ft | 215 kts | 356° |
| 2026-04-21 08:42 | 43.36755 | 10.27831 | 2518 ft | 215 kts | 356° |
| 2026-04-21 08:42 | 43.38243 | 10.27739 | 2503 ft | 213 kts | 356° |
| 2026-04-21 08:42 | 43.39723 | 10.27644 | 2504 ft | 213 kts | 356° |
| 2026-04-21 08:43 | 43.41206 | 10.27547 | 2511 ft | 214 kts | 356° |
| 2026-04-21 08:43 | 43.42193 | 10.27481 | 2506 ft | 214 kts | 356° |
| 2026-04-21 08:43 | 43.43664 | 10.27383 | 2513 ft | 208 kts | 356° |
| 2026-04-21 08:43 | 43.45094 | 10.27289 | 2516 ft | 206 kts | 356° |
| 2026-04-21 08:44 | 43.46537 | 10.27195 | 2516 ft | 209 kts | 356° |
| 2026-04-21 08:44 | 43.48452 | 10.27069 | 2504 ft | 207 kts | 356° |
| 2026-04-21 08:44 | 43.49424 | 10.27004 | 2502 ft | 208 kts | 356° |
| 2026-04-21 08:44 | 43.51297 | 10.26877 | 2479 ft | 196 kts | 356° |
| 2026-04-21 08:45 | 43.52200 | 10.26817 | 2479 ft | 190 kts | 356° |
| 2026-04-21 08:45 | 43.53484 | 10.26733 | 2487 ft | 188 kts | 356° |
| 2026-04-21 08:45 | 43.54793 | 10.26649 | 2497 ft | 188 kts | 356° |
| 2026-04-21 08:45 | 43.56092 | 10.26567 | 2490 ft | 183 kts | 356° |
| 2026-04-21 08:46 | 43.57303 | 10.26524 | 2466 ft | 166 kts | 6° |
| 2026-04-21 08:46 | 43.58263 | 10.27231 | 2487 ft | 157 kts | 52° |
| 2026-04-21 08:46 | 43.58891 | 10.28471 | 2585 ft | 158 kts | 54° |
| 2026-04-21 08:46 | 43.59541 | 10.29711 | 2561 ft | 160 kts | 54° |
| 2026-04-21 08:47 | 43.60266 | 10.30865 | 2325 ft | 161 kts | 42° |
| 2026-04-21 08:47 | 43.61096 | 10.31855 | 1948 ft | 157 kts | 39° |
| 2026-04-21 08:47 | 43.61932 | 10.32751 | 1550 ft | 148 kts | 37° |
| 2026-04-21 08:47 | 43.62741 | 10.33591 | 1185 ft | 143 kts | 37° |
| 2026-04-21 08:48 | 43.63513 | 10.34390 | 984 ft | 139 kts | 38° |
| 2026-04-21 08:48 | 43.64299 | 10.35204 | 817 ft | 144 kts | 38° |
| 2026-04-21 08:48 | 43.65090 | 10.36057 | 581 ft | 143 kts | 41° |
| 2026-04-21 08:48 | 43.65872 | 10.36864 | 410 ft | 140 kts | 34° |
| 2026-04-21 08:49 | 43.66675 | 10.37642 | 267 ft | 141 kts | 38° |
| 2026-04-21 08:49 | 43.67464 | 10.38464 | 103 ft | 143 kts | 38° |
| 2026-04-21 08:49 | 43.68243 | 10.39277 | 18 ft | 139 kts | 39° |
| 2026-04-21 08:49 | 43.68708 | 10.39759 | 17 ft | 18 kts | 25° |
| 2026-04-21 08:50 | 43.68716 | 10.39764 | 16 ft | 0 kts | 23° |
| 2026-04-21 08:50 | 43.68717 | 10.39765 | 16 ft | 0 kts | 23° |
| 2026-04-21 08:50 | 43.68746 | 10.39776 | 16 ft | 8 kts | 360° |
| 2026-04-21 08:50 | 43.68815 | 10.39694 | 15 ft | 17 kts | 307° |
| 2026-04-21 08:51 | 43.68887 | 10.39532 | 16 ft | 22 kts | 295° |
| 2026-04-21 08:51 | 43.68943 | 10.39334 | 14 ft | 22 kts | 282° |
| 2026-04-21 08:51 | 43.68934 | 10.39148 | 14 ft | 0 kts | 281° |